createdAt,value
2022-10-20T00:01:15.034Z,100805.09
2022-10-20T00:03:43.189Z,100812.66
2022-10-20T00:06:13.298Z,100805.56
2022-10-20T00:08:41.535Z,100797.69
2022-10-20T00:11:10.671Z,100812.69
2022-10-20T00:13:38.861Z,100807.50
2022-10-20T00:16:06.794Z,100812.78
2022-10-20T00:18:34.498Z,100815.03
2022-10-20T00:21:05.985Z,100813.78
2022-10-20T00:23:33.661Z,100816.37
2022-10-20T00:26:06.161Z,100818.38
2022-10-20T00:28:34.069Z,100813.22
2022-10-20T00:31:03.973Z,100824.09
2022-10-20T00:33:31.316Z,100833.84
2022-10-20T00:36:03.251Z,100825.53
2022-10-20T00:38:31.153Z,100827.94
2022-10-20T00:41:03.349Z,100818.19
2022-10-20T00:43:54.427Z,100821.84
2022-10-20T00:46:38.381Z,100831.84
2022-10-20T00:49:19.255Z,100841.16
2022-10-20T00:51:47.076Z,100835.59
2022-10-20T00:54:18.336Z,100841.50
2022-10-20T00:56:47.248Z,100836.47
2022-10-20T00:59:17.601Z,100843.91
2022-10-20T01:01:45.810Z,100842.53
2022-10-20T01:04:13.271Z,100843.00
2022-10-20T01:06:40.933Z,100838.03
2022-10-20T01:09:08.648Z,100840.66
2022-10-20T01:11:58.962Z,100838.00
2022-10-20T01:14:48.481Z,100835.12
2022-10-20T01:17:15.691Z,100841.75
2022-10-20T01:20:13.073Z,100834.91
2022-10-20T01:22:59.174Z,100839.34
2022-10-20T01:25:40.464Z,100835.41
2022-10-20T01:28:23.794Z,100833.37
2022-10-20T01:30:57.274Z,100834.03
2022-10-20T01:33:50.371Z,100839.50
2022-10-20T01:36:32.942Z,100847.31
2022-10-20T01:39:05.151Z,100840.97
2022-10-20T01:42:00.657Z,100843.22
2022-10-20T01:44:28.902Z,100847.41
2022-10-20T01:46:57.248Z,100845.81
2022-10-20T01:49:24.976Z,100854.53
2022-10-20T01:51:53.121Z,100855.81
2022-10-20T01:54:22.902Z,100851.03
2022-10-20T01:57:15.299Z,100848.88
2022-10-20T01:59:47.754Z,100841.03
2022-10-20T02:02:46.296Z,100853.25
2022-10-20T02:05:44.376Z,100845.50
2022-10-20T02:08:17.169Z,100844.56
2022-10-20T02:10:50.101Z,100847.56
2022-10-20T02:13:19.426Z,100850.94
2022-10-20T02:15:51.073Z,100849.53
2022-10-20T02:18:22.574Z,100849.38
2022-10-20T02:20:51.881Z,100855.25
2022-10-20T02:23:19.258Z,100849.94
2022-10-20T02:25:51.627Z,100866.25
2022-10-20T02:28:20.077Z,100861.41
2022-10-20T02:30:47.742Z,100851.69
2022-10-20T02:33:16.965Z,100862.44
2022-10-20T02:35:53.904Z,100862.25
2022-10-20T02:38:21.738Z,100858.00
2022-10-20T02:40:49.342Z,100859.28
2022-10-20T02:43:16.677Z,100866.91
2022-10-20T02:45:43.977Z,100863.56
2022-10-20T02:48:11.603Z,100870.91
2022-10-20T02:50:38.959Z,100873.72
2022-10-20T02:53:06.445Z,100867.81
2022-10-20T02:55:34.024Z,100870.41
2022-10-20T02:58:01.424Z,100875.13
2022-10-20T03:00:31.098Z,100868.97
2022-10-20T03:02:58.696Z,100870.03
2022-10-20T03:05:27.064Z,100880.59
2022-10-20T03:07:54.413Z,100871.94
2022-10-20T03:10:22.163Z,100871.59
2022-10-20T03:12:49.715Z,100873.38
2022-10-20T03:15:17.641Z,100876.22
2022-10-20T03:17:45.375Z,100880.81
2022-10-20T03:20:12.799Z,100884.78
2022-10-20T03:22:40.333Z,100884.91
2022-10-20T03:25:08.410Z,100889.69
2022-10-20T03:27:36.309Z,100887.87
2022-10-20T03:30:04.316Z,100881.59
2022-10-20T03:32:32.254Z,100885.56
2022-10-20T03:34:59.755Z,100889.56
2022-10-20T03:37:28.789Z,100885.97
2022-10-20T03:39:57.766Z,100896.38
2022-10-20T03:42:25.214Z,100885.97
2022-10-20T03:44:52.698Z,100893.12
2022-10-20T03:47:20.441Z,100896.44
2022-10-20T03:49:47.813Z,100895.38
2022-10-20T03:52:15.283Z,100896.12
2022-10-20T03:54:42.885Z,100901.56
2022-10-20T03:57:10.207Z,100889.53
2022-10-20T03:59:37.614Z,100894.97
2022-10-20T04:02:05.310Z,100892.03
2022-10-20T04:04:32.994Z,100898.47
2022-10-20T04:07:00.304Z,100884.91
2022-10-20T04:09:27.642Z,100899.31
2022-10-20T04:11:55.290Z,100899.41
2022-10-20T04:14:22.687Z,100899.84
2022-10-20T04:16:50.128Z,100895.47
2022-10-20T04:19:17.723Z,100898.03
2022-10-20T04:21:45.065Z,100894.44
2022-10-20T04:24:12.369Z,100891.84
2022-10-20T04:26:40.053Z,100885.19
2022-10-20T04:29:07.455Z,100890.06
2022-10-20T04:31:34.809Z,100889.31
2022-10-20T04:34:02.468Z,100896.09
2022-10-20T04:36:29.785Z,100899.16
2022-10-20T04:38:57.112Z,100894.16
2022-10-20T04:41:24.667Z,100894.41
2022-10-20T04:43:52.551Z,100884.19
2022-10-20T04:46:20.040Z,100896.50
2022-10-20T04:48:47.637Z,100887.91
2022-10-20T04:51:15.824Z,100890.56
2022-10-20T04:53:43.225Z,100888.53
2022-10-20T04:56:13.942Z,100876.66
2022-10-20T04:58:41.308Z,100890.38
2022-10-20T05:01:10.350Z,100891.81
2022-10-20T05:03:37.950Z,100890.63
2022-10-20T05:06:12.929Z,100898.00
2022-10-20T05:08:41.855Z,100902.91
2022-10-20T05:11:09.520Z,100912.28
2022-10-20T05:13:37.347Z,100911.91
2022-10-20T05:16:06.224Z,100908.56
2022-10-20T05:18:34.319Z,100919.09
2022-10-20T05:21:13.473Z,100917.94
2022-10-20T05:23:41.834Z,100924.91
2022-10-20T05:26:15.315Z,100928.09
2022-10-20T05:28:44.913Z,100933.72
2022-10-20T05:31:12.579Z,100930.91
2022-10-20T05:33:48.293Z,100941.97
2022-10-20T05:36:19.461Z,100945.16
2022-10-20T05:38:50.858Z,100940.66
2022-10-20T05:41:21.445Z,100954.88
2022-10-20T05:44:00.190Z,100958.63
2022-10-20T05:46:31.432Z,100963.56
2022-10-20T05:49:00.522Z,100956.19
2022-10-20T05:51:32.027Z,100960.28
2022-10-20T05:53:59.731Z,100961.72
2022-10-20T05:56:29.189Z,100979.13
2022-10-20T05:58:57.621Z,100971.59
2022-10-20T06:01:39.440Z,100977.22
2022-10-20T06:04:10.656Z,100985.28
2022-10-20T06:06:38.014Z,100978.59
2022-10-20T06:09:07.700Z,100980.63
2022-10-20T06:11:39.292Z,100981.97
2022-10-20T06:14:08.129Z,100995.00
2022-10-20T06:16:36.305Z,100990.03
2022-10-20T06:19:03.984Z,100991.81
2022-10-20T06:21:32.903Z,100993.75
2022-10-20T06:24:01.917Z,100996.06
2022-10-20T06:26:30.045Z,101008.84
2022-10-20T06:29:03.557Z,101001.25
2022-10-20T06:31:40.410Z,101002.94
2022-10-20T06:34:09.827Z,101006.31
2022-10-20T06:36:38.274Z,101010.69
2022-10-20T06:39:07.318Z,101011.25
2022-10-20T06:41:35.284Z,101012.00
2022-10-20T06:44:03.554Z,101012.81
2022-10-20T06:46:33.431Z,101009.28
2022-10-20T06:49:01.752Z,101011.44
2022-10-20T06:51:29.479Z,101016.69
2022-10-20T06:53:56.915Z,101020.91
2022-10-20T06:56:27.071Z,101015.69
2022-10-20T06:58:56.034Z,101013.72
2022-10-20T07:01:37.072Z,101016.09
2022-10-20T07:04:07.313Z,101024.22
2022-10-20T07:06:37.079Z,101022.31
2022-10-20T07:09:08.438Z,101020.44
2022-10-20T07:11:36.246Z,101021.72
2022-10-20T07:14:04.299Z,101029.44
2022-10-20T07:16:33.821Z,101028.12
2022-10-20T07:19:02.028Z,101027.06
2022-10-20T07:21:34.659Z,101027.06
2022-10-20T07:24:04.986Z,101033.09
2022-10-20T07:26:34.496Z,101029.47
2022-10-20T07:29:03.776Z,101028.31
2022-10-20T07:31:33.729Z,101036.34
2022-10-20T07:34:13.054Z,101037.91
2022-10-20T07:36:49.336Z,101042.22
2022-10-20T07:39:16.734Z,101039.44
2022-10-20T07:41:47.201Z,101036.47
2022-10-20T07:44:15.101Z,101043.84
2022-10-20T07:46:42.411Z,101039.75
2022-10-20T07:51:57.418Z,101047.03
2022-10-20T07:54:24.788Z,101043.19
2022-10-20T07:56:52.137Z,101042.81
2022-10-20T07:59:19.820Z,101039.16
2022-10-20T08:01:47.288Z,101041.84
2022-10-20T08:04:15.025Z,101036.44
2022-10-20T08:06:42.368Z,101033.84
2022-10-20T08:09:09.747Z,101033.72
2022-10-20T08:11:37.408Z,101041.25
2022-10-20T08:14:04.750Z,101043.19
2022-10-20T08:19:26.280Z,101043.25
2022-10-20T08:21:53.640Z,101054.50
2022-10-20T08:24:21.403Z,101049.97
2022-10-20T08:26:48.772Z,101054.59
2022-10-20T08:29:16.102Z,101049.34
2022-10-20T08:31:44.215Z,101056.88
2022-10-20T08:34:11.702Z,101044.28
2022-10-20T08:36:39.069Z,101045.38
2022-10-20T08:39:06.761Z,101052.38
2022-10-20T08:42:07.532Z,101051.25
2022-10-20T08:44:34.596Z,101047.19
2022-10-20T08:47:03.653Z,101049.44
2022-10-20T08:49:33.281Z,101055.28
2022-10-20T08:52:01.377Z,101053.66
2022-10-20T08:54:29.031Z,101051.78
2022-10-20T08:56:56.785Z,101043.63
2022-10-20T08:59:29.114Z,101049.94
2022-10-20T09:01:57.674Z,101047.31
2022-10-20T09:04:29.912Z,101048.97
2022-10-20T09:07:00.476Z,101048.09
2022-10-20T09:09:30.494Z,101052.31
2022-10-20T09:12:04.764Z,101050.97
2022-10-20T09:14:35.461Z,101046.75
2022-10-20T09:17:06.021Z,101045.03
2022-10-20T09:19:36.032Z,101040.28
2022-10-20T09:22:07.247Z,101039.88
2022-10-20T09:24:35.630Z,101043.09
2022-10-20T09:27:20.087Z,101036.53
2022-10-20T09:29:47.743Z,101034.59
2022-10-20T09:32:51.183Z,101036.78
2022-10-20T09:35:20.863Z,101037.88
2022-10-20T09:37:54.517Z,101039.00
2022-10-20T09:40:22.747Z,101050.00
2022-10-20T09:43:03.185Z,101046.72
2022-10-20T09:45:32.193Z,101052.00
2022-10-20T09:48:03.964Z,101040.22
2022-10-20T09:50:37.451Z,101047.88
2022-10-20T09:53:07.670Z,101044.22
2022-10-20T09:55:36.889Z,101051.66
2022-10-20T09:58:05.148Z,101050.84
2022-10-20T10:00:45.388Z,101039.38
2022-10-20T10:03:21.539Z,101043.66
2022-10-20T10:05:53.255Z,101043.84
2022-10-20T10:08:23.470Z,101050.63
2022-10-20T10:11:00.045Z,101041.88
2022-10-20T10:13:29.943Z,101044.81
2022-10-20T10:16:11.824Z,101045.59
2022-10-20T10:18:39.477Z,101041.75
2022-10-20T10:21:09.493Z,101046.31
2022-10-20T10:23:50.438Z,101028.53
2022-10-20T10:26:52.071Z,101028.16
2022-10-20T10:29:31.519Z,101020.66
2022-10-20T10:32:03.674Z,101021.41
2022-10-20T10:34:45.362Z,101016.03
2022-10-20T10:37:15.066Z,101013.16
2022-10-20T10:39:42.800Z,101003.19
2022-10-20T10:42:31.957Z,101014.91
2022-10-20T10:45:29.752Z,101011.09
2022-10-20T10:48:14.840Z,101001.62
2022-10-20T10:50:52.933Z,101001.62
2022-10-20T10:53:32.104Z,100985.97
2022-10-20T10:56:21.371Z,100985.66
2022-10-20T10:58:58.824Z,100986.94
2022-10-20T11:01:40.601Z,100980.09
2022-10-20T11:04:33.294Z,100981.00
2022-10-20T11:07:23.434Z,100969.28
2022-10-20T11:09:56.718Z,100966.06
2022-10-20T11:12:42.895Z,100963.72
2022-10-20T11:15:28.971Z,100956.78
2022-10-20T11:18:34.429Z,100955.34
2022-10-20T11:21:20.331Z,100952.66
2022-10-20T11:24:15.283Z,100948.97
2022-10-20T11:26:47.748Z,100946.59
2022-10-20T11:29:37.891Z,100934.53
2022-10-20T11:32:12.337Z,100941.28
2022-10-20T11:35:07.763Z,100936.31
2022-10-20T11:37:45.490Z,100934.50
2022-10-20T11:40:29.909Z,100924.72
2022-10-20T11:43:13.354Z,100924.09
2022-10-20T11:45:54.611Z,100912.31
2022-10-20T11:48:29.133Z,100920.06
2022-10-20T11:51:08.984Z,100918.34
2022-10-20T11:53:45.965Z,100918.00
2022-10-20T11:56:38.545Z,100909.41
2022-10-20T11:59:48.143Z,100912.44
2022-10-20T12:02:40.426Z,100914.91
2022-10-20T12:05:47.827Z,100899.66
2022-10-20T12:09:03.195Z,100910.06
2022-10-20T12:11:39.513Z,100908.97
2022-10-20T12:14:15.647Z,100909.78
2022-10-20T12:16:52.040Z,100903.41
2022-10-20T12:19:35.344Z,100896.41
2022-10-20T12:22:39.179Z,100904.25
2022-10-20T12:25:06.536Z,100898.16
2022-10-20T12:27:34.799Z,100884.06
2022-10-20T12:30:50.546Z,100893.91
2022-10-20T12:33:19.927Z,100892.47
2022-10-20T12:36:29.951Z,100880.13
2022-10-20T12:39:12.620Z,100884.72
2022-10-20T12:41:45.860Z,100880.25
2022-10-20T12:44:17.963Z,100871.63
2022-10-20T12:46:55.549Z,100867.50
2022-10-20T12:49:35.418Z,100862.16
2022-10-20T12:52:03.392Z,100859.28
2022-10-20T12:54:35.268Z,100858.88
2022-10-20T12:57:06.542Z,100858.97
2022-10-20T12:59:38.153Z,100839.31
2022-10-20T13:02:08.434Z,100843.59
2022-10-20T13:05:01.484Z,100849.28
2022-10-20T13:07:46.957Z,100845.97
2022-10-20T13:10:26.845Z,100848.81
2022-10-20T13:12:58.521Z,100844.72
2022-10-20T13:15:26.522Z,100842.69
2022-10-20T13:17:58.639Z,100842.69
2022-10-20T13:20:37.639Z,100843.50
2022-10-20T13:23:05.123Z,100848.09
2022-10-20T13:25:36.356Z,100849.34
2022-10-20T13:28:07.883Z,100840.50
2022-10-20T13:30:36.288Z,100845.34
2022-10-20T13:36:08.496Z,100834.97
2022-10-20T13:38:35.696Z,100833.78
2022-10-20T13:41:33.375Z,100828.72
2022-10-20T13:44:19.616Z,100826.41
2022-10-20T13:47:08.268Z,100836.94
2022-10-20T13:50:06.228Z,100839.63
2022-10-20T13:52:37.398Z,100825.03
2022-10-20T13:55:06.841Z,100829.59
2022-10-20T13:57:35.664Z,100820.91
2022-10-20T14:00:16.936Z,100817.88
2022-10-20T14:02:57.363Z,100823.06
2022-10-20T14:05:25.531Z,100815.53
2022-10-20T14:07:54.996Z,100815.03
2022-10-20T14:10:22.296Z,100808.41
2022-10-20T14:12:49.689Z,100814.84
2022-10-20T14:15:23.287Z,100807.94
2022-10-20T14:18:02.977Z,100814.97
2022-10-20T14:20:32.855Z,100806.84
2022-10-20T14:23:02.387Z,100806.69
2022-10-20T14:25:31.463Z,100799.63
2022-10-20T14:27:59.850Z,100813.66
2022-10-20T14:30:28.321Z,100815.00
2022-10-20T14:32:55.719Z,100807.38
2022-10-20T14:35:29.693Z,100811.00
2022-10-20T14:38:17.875Z,100809.59
2022-10-20T14:40:54.306Z,100807.88
2022-10-20T14:43:27.094Z,100802.84
2022-10-20T14:45:56.859Z,100801.81
2022-10-20T14:48:25.490Z,100806.69
2022-10-20T14:50:54.129Z,100803.37
2022-10-20T14:53:32.139Z,100805.50
2022-10-20T14:56:02.603Z,100795.12
2022-10-20T14:58:33.175Z,100790.94
2022-10-20T15:01:28.058Z,100792.16
2022-10-20T15:04:10.810Z,100798.88
2022-10-20T15:06:38.270Z,100799.72
2022-10-20T15:09:07.097Z,100792.16
2022-10-20T15:11:34.510Z,100781.81
2022-10-20T15:14:01.872Z,100788.81
2022-10-20T15:16:45.108Z,100794.34
2022-10-20T15:19:31.636Z,100784.84
2022-10-20T15:22:08.680Z,100787.25
2022-10-20T15:24:36.654Z,100788.72
2022-10-20T15:27:05.061Z,100781.09
2022-10-20T15:29:33.334Z,100776.16
2022-10-20T15:32:00.878Z,100770.16
2022-10-20T15:34:28.524Z,100774.47
2022-10-20T15:36:55.904Z,100772.13
2022-10-20T15:39:23.275Z,100776.03
2022-10-20T15:41:53.759Z,100775.81
2022-10-20T15:44:22.402Z,100774.53
2022-10-20T15:46:53.434Z,100778.66
2022-10-20T15:49:21.528Z,100780.34
2022-10-20T15:51:50.576Z,100775.81
2022-10-20T15:54:20.224Z,100779.00
2022-10-20T15:56:48.349Z,100784.91
2022-10-20T15:59:15.876Z,100782.53
2022-10-20T16:01:43.436Z,100784.28
2022-10-20T16:04:23.809Z,100786.16
2022-10-20T16:06:57.660Z,100787.28
2022-10-20T16:09:28.107Z,100783.66
2022-10-20T16:11:55.470Z,100774.28
2022-10-20T16:14:22.845Z,100784.50
2022-10-20T16:16:50.582Z,100786.53
2022-10-20T16:19:18.129Z,100784.22
2022-10-20T16:21:45.661Z,100789.87
2022-10-20T16:24:15.128Z,100789.31
2022-10-20T16:26:42.543Z,100788.19
2022-10-20T16:29:09.870Z,100784.94
2022-10-20T16:31:37.780Z,100786.97
2022-10-20T16:34:05.419Z,100784.19
2022-10-20T16:36:32.822Z,100788.41
2022-10-20T16:39:00.953Z,100789.94
2022-10-20T16:41:28.290Z,100789.81
2022-10-20T16:44:00.128Z,100795.94
2022-10-20T16:46:29.003Z,100807.03
2022-10-20T16:48:57.330Z,100794.44
2022-10-20T16:51:24.846Z,100806.78
2022-10-20T16:53:55.709Z,100805.94
2022-10-20T16:56:25.725Z,100801.91
2022-10-20T16:58:53.321Z,100796.37
2022-10-20T17:01:21.968Z,100799.97
2022-10-20T17:03:51.672Z,100799.56
2022-10-20T17:06:21.813Z,100796.16
2022-10-20T17:08:49.402Z,100798.69
2022-10-20T17:11:19.318Z,100805.19
2022-10-20T17:13:47.139Z,100795.12
2022-10-20T17:16:17.419Z,100799.13
2022-10-20T17:18:45.153Z,100800.84
2022-10-20T17:21:14.707Z,100795.69
2022-10-20T17:23:44.231Z,100784.66
2022-10-20T17:26:20.553Z,100787.28
2022-10-20T17:28:49.465Z,100800.00
2022-10-20T17:31:18.490Z,100794.66
2022-10-20T17:33:46.616Z,100798.06
2022-10-20T17:36:15.131Z,100800.19
2022-10-20T17:38:43.553Z,100795.41
2022-10-20T17:41:13.359Z,100798.12
2022-10-20T17:43:41.819Z,100802.59
2022-10-20T17:46:12.890Z,100804.44
2022-10-20T17:48:41.482Z,100812.19
2022-10-20T17:51:13.395Z,100809.13
2022-10-20T17:53:45.350Z,100818.50
2022-10-20T17:56:28.112Z,100817.91
2022-10-20T17:58:57.367Z,100814.94
2022-10-20T18:01:33.908Z,100818.00
2022-10-20T18:04:03.321Z,100819.06
2022-10-20T18:06:34.587Z,100820.59
2022-10-20T18:09:07.760Z,100820.37
2022-10-20T18:11:36.058Z,100819.50
2022-10-20T18:14:04.624Z,100820.09
2022-10-20T18:16:34.008Z,100809.13
2022-10-20T18:19:01.857Z,100810.28
2022-10-20T18:21:31.683Z,100813.09
2022-10-20T18:24:04.923Z,100802.72
2022-10-20T18:26:35.559Z,100801.91
2022-10-20T18:29:05.508Z,100812.66
2022-10-20T18:31:37.894Z,100809.72
2022-10-20T18:34:07.567Z,100804.56
2022-10-20T18:36:39.111Z,100797.81
2022-10-20T18:39:28.547Z,100802.81
2022-10-20T18:41:56.648Z,100810.78
2022-10-20T18:44:24.928Z,100811.78
2022-10-20T18:46:57.832Z,100807.53
2022-10-20T18:49:26.494Z,100804.81
2022-10-20T18:51:54.326Z,100811.94
2022-10-20T18:54:24.559Z,100816.41
2022-10-20T18:56:52.983Z,100815.63
2022-10-20T18:59:24.948Z,100808.47
2022-10-20T19:01:53.073Z,100801.06
2022-10-20T19:04:21.692Z,100821.28
2022-10-20T19:06:49.629Z,100818.97
2022-10-20T19:09:21.504Z,100818.78
2022-10-20T19:14:18.521Z,100823.13
2022-10-20T19:16:50.186Z,100818.28
2022-10-20T19:19:27.398Z,100802.97
2022-10-20T19:21:55.432Z,100808.31
2022-10-20T19:24:24.573Z,100813.88
2022-10-20T19:29:46.794Z,100814.91
2022-10-20T19:32:17.616Z,100810.56
2022-10-20T19:34:45.782Z,100805.00
2022-10-20T19:37:13.485Z,100806.03
2022-10-20T19:39:42.325Z,100801.66
2022-10-20T19:42:11.365Z,100804.00
2022-10-20T19:44:40.168Z,100809.72
2022-10-20T19:47:08.512Z,100809.97
2022-10-20T19:49:36.251Z,100813.37
2022-10-20T19:52:05.414Z,100806.78
2022-10-20T19:54:33.496Z,100818.12
2022-10-20T19:57:01.489Z,100811.13
2022-10-20T19:59:29.633Z,100815.91
2022-10-20T20:01:57.511Z,100819.78
2022-10-20T20:04:25.661Z,100814.19
2022-10-20T20:06:54.725Z,100811.38
2022-10-20T20:09:23.978Z,100817.38
2022-10-20T20:11:52.080Z,100812.16
2022-10-20T20:14:20.349Z,100813.47
2022-10-20T20:16:49.413Z,100812.87
2022-10-20T20:19:18.141Z,100815.50
2022-10-20T20:21:46.252Z,100816.75
2022-10-20T20:24:14.722Z,100825.28
2022-10-20T20:26:44.561Z,100812.41
2022-10-20T20:29:12.270Z,100821.56
2022-10-20T20:31:40.649Z,100820.31
2022-10-20T20:34:08.729Z,100817.75
2022-10-20T20:36:36.130Z,100823.50
2022-10-20T20:39:03.499Z,100822.38
2022-10-20T20:41:31.945Z,100819.75
2022-10-20T20:44:02.927Z,100812.59
2022-10-20T20:46:34.017Z,100811.56
2022-10-20T20:49:01.379Z,100822.97
2022-10-20T20:51:33.271Z,100816.19
2022-10-20T20:54:01.610Z,100804.84
2022-10-20T20:56:29.041Z,100817.94
2022-10-20T20:58:56.425Z,100820.91
2022-10-20T21:01:29.040Z,100809.34
2022-10-20T21:04:01.385Z,100815.91
2022-10-20T21:06:37.990Z,100820.28
2022-10-20T21:09:17.016Z,100815.41
2022-10-20T21:11:44.647Z,100819.75
2022-10-20T21:14:11.955Z,100804.06
2022-10-20T21:16:39.266Z,100813.34
2022-10-20T21:19:09.565Z,100806.59
2022-10-20T21:21:39.097Z,100812.34
2022-10-20T21:24:06.932Z,100816.53
2022-10-20T21:26:34.248Z,100817.59
2022-10-20T21:29:01.592Z,100813.44
2022-10-20T21:31:30.362Z,100814.31
2022-10-20T21:34:06.754Z,100811.31
2022-10-20T21:36:35.489Z,100817.94
2022-10-20T21:39:05.341Z,100806.37
2022-10-20T21:41:34.870Z,100818.69
2022-10-20T21:44:04.157Z,100814.34
2022-10-20T21:46:33.266Z,100811.66
2022-10-20T21:49:05.019Z,100808.81
2022-10-20T21:51:37.613Z,100803.91
2022-10-20T21:54:11.796Z,100807.31
2022-10-20T21:56:57.784Z,100802.97
2022-10-20T21:59:26.048Z,100802.44
2022-10-20T22:01:55.352Z,100803.50
2022-10-20T22:04:25.383Z,100793.44
2022-10-20T22:06:53.390Z,100803.53
2022-10-20T22:09:21.311Z,100802.13
2022-10-20T22:11:55.238Z,100806.09
2022-10-20T22:14:23.447Z,100813.19
2022-10-20T22:16:51.648Z,100801.84
2022-10-20T22:19:21.756Z,100805.81
2022-10-20T22:21:50.874Z,100798.12
2022-10-20T22:24:20.554Z,100796.09
2022-10-20T22:26:48.770Z,100802.22
2022-10-20T22:29:17.620Z,100803.69
2022-10-20T22:31:45.235Z,100814.34
2022-10-20T22:34:12.935Z,100808.22
2022-10-20T22:36:40.872Z,100804.50
2022-10-20T22:39:08.934Z,100809.19
2022-10-20T22:41:36.594Z,100808.19
2022-10-20T22:44:04.325Z,100811.69
2022-10-20T22:46:31.974Z,100817.53
2022-10-20T22:51:31.928Z,100806.47
2022-10-20T22:53:59.315Z,100806.53
2022-10-20T22:56:26.780Z,100814.16
2022-10-20T22:58:54.524Z,100812.25
2022-10-20T23:01:23.540Z,100802.72
2022-10-20T23:03:51.104Z,100805.63
2022-10-20T23:06:24.291Z,100804.72
2022-10-20T23:08:53.765Z,100800.06
2022-10-20T23:11:22.208Z,100790.88
2022-10-20T23:13:51.043Z,100789.09
2022-10-20T23:16:18.899Z,100775.44
2022-10-20T23:18:47.187Z,100773.53
2022-10-20T23:21:14.661Z,100774.25
2022-10-20T23:23:42.202Z,100785.22
2022-10-20T23:26:10.121Z,100790.78
2022-10-20T23:28:38.115Z,100793.00
2022-10-20T23:31:14.211Z,100801.31
2022-10-20T23:33:43.423Z,100799.03
2022-10-20T23:36:12.182Z,100795.00
2022-10-20T23:38:39.540Z,100786.34
2022-10-20T23:41:09.053Z,100787.66
2022-10-20T23:43:39.284Z,100795.00
2022-10-20T23:46:07.611Z,100789.37
2022-10-20T23:48:39.162Z,100792.59
2022-10-20T23:51:08.307Z,100789.53
2022-10-20T23:53:35.772Z,100787.31
2022-10-20T23:56:03.428Z,100782.84
2022-10-20T23:58:31.144Z,100784.09
